Terminal Aerodrome Forecast
Issued by NWS Burlington, VT

Home | Current Version | Previous Version | Text Only | Print | Product List | Glossary On
Versions: 1 2 3 4 5 6 7 8 9 10 11 12 13 14 15 16 17 18 19 20 21 22
000
FTUS41 KBTV 280530
TAFBTV
TAF
KBTV 280530Z 2806/2906 15007KT P6SM SCT070
     FM281200 18012KT P6SM BKN050
     FM281700 18010KT P6SM VCSH SCT070
     FM282200 19008KT P6SM SCT090=

USA.gov is the U.S. government's official web portal to all federal, state and local government web resources and services.